Time;durP1;ratioP1;P1;durP2;ratioP2;P2;SDS_P1;SDS_P2;PMS_P1;PMS_P2;Temp;Humidity;BMP_temperature;BMP_pressure;BME280_temperature;BME280_humidity;BME280_pressure;Samples;Min_cycle;Max_cycle;Signal;HPM_P1;HPM_P2
2021/11/16 00:01:27;;;;;;;45.47;27.27;;;;;;;8.17;100.00;102734.16;4939977;29;20055;-68
2021/11/16 00:04:13;;;;;;;47.03;28.42;;;;;;;8.20;100.00;102730.72;4939912;29;20473;-69
2021/11/16 00:06:59;;;;;;;41.35;26.55;;;;;;;8.39;100.00;102732.94;4927767;29;20062;-68
2021/11/16 00:09:46;;;;;;;43.63;29.42;;;;;;;7.87;100.00;102724.66;4939692;29;20063;-67
2021/11/16 00:12:32;;;;;;;40.60;25.75;;;;;;;7.84;100.00;102733.28;4938848;29;20462;-68
2021/11/16 00:15:18;;;;;;;42.53;27.20;;;;;;;7.82;100.00;102744.53;4940620;29;20505;-68
2021/11/16 00:18:05;;;;;;;47.42;28.98;;;;;;;7.84;100.00;102741.13;4939149;29;20035;-68
2021/11/16 00:20:51;;;;;;;46.78;26.95;;;;;;;7.87;100.00;102729.88;4939883;29;20461;-68
2021/11/16 00:23:38;;;;;;;43.00;27.45;;;;;;;7.98;100.00;102731.94;4939142;29;20047;-68
2021/11/16 00:26:24;;;;;;;45.53;28.40;;;;;;;7.65;100.00;102732.78;4941303;29;20098;-68
2021/11/16 00:29:10;;;;;;;42.33;27.38;;;;;;;7.93;100.00;102736.16;4939049;29;20034;-68
2021/11/16 00:31:56;;;;;;;47.28;29.15;;;;;;;7.68;100.00;102730.25;4939276;29;20027;-68
2021/11/16 00:34:42;;;;;;;49.92;29.25;;;;;;;7.89;100.00;102729.09;4925131;29;20036;-68
2021/11/16 00:37:28;;;;;;;48.53;29.90;;;;;;;8.10;100.00;102727.00;4940329;29;20042;-68
2021/11/16 00:40:19;;;;;;;48.00;29.48;;;;;;;7.60;100.00;102729.19;4940166;29;20028;-68
2021/11/16 00:43:07;;;;;;;50.58;29.95;;;;;;;7.60;100.00;102735.25;4939133;29;20110;-68
2021/11/16 00:45:53;;;;;;;50.70;30.67;;;;;;;7.47;100.00;102740.13;4925346;29;20043;-68
2021/11/16 00:48:39;;;;;;;54.58;32.15;;;;;;;7.09;100.00;102730.34;4926242;29;20023;-68
2021/11/16 00:51:25;;;;;;;51.05;30.25;;;;;;;7.09;100.00;102736.44;4939237;29;20403;-68
2021/11/16 00:54:11;;;;;;;53.25;31.52;;;;;;;7.67;100.00;102741.53;4939845;29;20031;-68
2021/11/16 00:56:57;;;;;;;53.53;32.33;;;;;;;7.15;100.00;102741.81;4938593;29;20399;-68
2021/11/16 00:59:44;;;;;;;49.40;30.90;;;;;;;7.38;100.00;102740.75;4937865;29;20032;-68
2021/11/16 01:02:30;;;;;;;57.05;33.40;;;;;;;7.85;100.00;102727.25;4938732;29;20039;-68
2021/11/16 01:05:16;;;;;;;56.00;32.45;;;;;;;7.50;100.00;102733.25;4938019;29;20099;-69
2021/11/16 01:08:02;;;;;;;51.83;31.35;;;;;;;7.72;100.00;102738.19;4939895;29;20023;-67
2021/11/16 01:10:48;;;;;;;51.10;31.65;;;;;;;8.08;100.00;102740.88;4926336;29;20517;-68
2021/11/16 01:13:35;;;;;;;57.78;30.50;;;;;;;7.78;100.00;102732.25;4939049;29;20094;-67
2021/11/16 01:16:21;;;;;;;52.03;31.90;;;;;;;7.79;100.00;102734.91;4937884;29;20067;-68
2021/11/16 01:19:08;;;;;;;58.05;33.30;;;;;;;7.95;100.00;102731.84;4938672;29;20355;-68
2021/11/16 01:21:53;;;;;;;52.95;32.20;;;;;;;8.12;100.00;102733.13;4938417;29;20403;-68
2021/11/16 01:24:40;;;;;;;52.67;32.80;;;;;;;7.32;100.00;102743.16;4939883;29;20435;-69
2021/11/16 01:27:26;;;;;;;56.15;32.55;;;;;;;7.42;100.00;102750.44;4938201;29;20148;-68
2021/11/16 01:30:17;;;;;;;56.97;31.63;;;;;;;7.58;100.00;102746.50;4938068;29;20032;-68
2021/11/16 01:33:09;;;;;;;56.47;32.13;;;;;;;7.72;100.00;102739.94;4938182;29;20063;-68
2021/11/16 01:35:56;;;;;;;56.25;33.65;;;;;;;7.90;100.00;102729.94;4937124;29;20055;-69
2021/11/16 01:38:43;;;;;;;58.30;33.40;;;;;;;7.80;100.00;102734.06;4938566;29;20067;-68
2021/11/16 01:41:31;;;;;;;65.88;36.50;;;;;;;7.17;100.00;102747.06;4937763;29;20031;-69
2021/11/16 01:44:17;;;;;;;59.65;35.03;;;;;;;7.48;100.00;102745.34;4937723;29;20060;-68
2021/11/16 01:47:06;;;;;;;62.80;35.70;;;;;;;7.36;100.00;102745.03;4923919;29;20047;-68
2021/11/16 01:49:52;;;;;;;66.35;38.65;;;;;;;7.48;100.00;102744.50;4939391;29;20348;-68
2021/11/16 01:52:38;;;;;;;71.25;39.78;;;;;;;7.15;100.00;102735.75;4925020;29;20038;-68
2021/11/16 01:55:24;;;;;;;70.45;37.97;;;;;;;6.80;100.00;102739.94;4938604;29;20039;-68
2021/11/16 01:58:10;;;;;;;66.22;38.15;;;;;;;6.94;100.00;102740.31;4937647;29;20151;-68
2021/11/16 02:00:56;;;;;;;69.35;38.05;;;;;;;7.17;100.00;102740.16;4939023;29;20114;-68
2021/11/16 02:03:42;;;;;;;68.30;38.03;;;;;;;7.29;100.00;102739.59;4937431;29;20027;-68
2021/11/16 02:06:31;;;;;;;66.75;38.58;;;;;;;7.01;100.00;102735.34;4937298;29;20099;-68
2021/11/16 05:04:46;;;;;;;63.30;33.22;;;;;;;6.85;100.00;102727.03;4912053;29;20070;-68
2021/11/16 05:07:32;;;;;;;62.88;32.83;;;;;;;6.67;100.00;102734.31;4919700;29;20148;-68
2021/11/16 05:10:19;;;;;;;74.30;35.30;;;;;;;6.61;100.00;102735.00;4919876;29;20191;-68
2021/11/16 05:13:05;;;;;;;69.63;33.75;;;;;;;6.59;100.00;102738.38;4920296;29;20054;-69
2021/11/16 05:15:51;;;;;;;68.05;34.42;;;;;;;6.52;100.00;102734.72;4920280;29;20095;-68
2021/11/16 05:18:36;;;;;;;68.43;33.40;;;;;;;6.47;100.00;102731.06;4920527;29;20028;-68
2021/11/16 05:21:22;;;;;;;67.82;33.88;;;;;;;6.40;100.00;102730.84;4907365;29;20040;-68
2021/11/16 05:24:08;;;;;;;66.63;34.55;;;;;;;6.46;100.00;102741.44;4920292;29;20379;-68
2021/11/16 05:26:55;;;;;;;67.72;34.05;;;;;;;6.42;100.00;102737.84;4920343;29;20427;-68
2021/11/16 05:29:41;;;;;;;63.33;32.85;;;;;;;6.52;100.00;102741.63;4920100;29;20383;-68
2021/11/16 05:32:27;;;;;;;64.63;33.28;;;;;;;6.68;100.00;102738.66;4921423;29;20054;-67
2021/11/16 05:35:13;;;;;;;63.28;33.60;;;;;;;6.81;100.00;102733.88;4919907;29;20111;-68
2021/11/16 05:37:59;;;;;;;69.20;35.40;;;;;;;6.96;100.00;102734.34;4920063;29;20071;-68
2021/11/16 05:40:45;;;;;;;74.40;34.72;;;;;;;6.54;100.00;102734.75;4918830;29;20028;-68
2021/11/16 05:43:31;;;;;;;76.20;35.78;;;;;;;6.76;100.00;102737.19;4906918;29;20043;-68
2021/11/16 05:46:23;;;;;;;83.22;36.42;;;;;;;7.05;100.00;102751.94;4920731;29;20020;-68
2021/11/16 05:49:09;;;;;;;80.72;34.92;;;;;;;7.44;100.00;102753.06;4907144;29;20035;-68
2021/11/16 05:51:54;;;;;;;97.70;38.97;;;;;;;7.27;100.00;102757.81;4906290;29;20032;-69
2021/11/16 05:54:43;;;;;;;85.93;38.63;;;;;;;7.40;100.00;102759.91;4919917;29;20366;-69
2021/11/16 05:57:29;;;;;;;99.13;40.90;;;;;;;7.37;100.00;102761.56;4919613;29;20124;-68
2021/11/16 06:00:15;;;;;;;96.60;43.13;;;;;;;7.90;100.00;102762.16;4920031;29;20375;-68
2021/11/16 06:03:01;;;;;;;83.22;36.97;;;;;;;7.51;100.00;102763.72;4918073;29;20036;-68
2021/11/16 06:05:46;;;;;;;87.22;37.63;;;;;;;7.05;100.00;102751.94;4919322;29;20035;-69
2021/11/16 06:08:32;;;;;;;86.68;38.20;;;;;;;7.25;100.00;102764.72;4920449;29;20111;-69
2021/11/16 06:11:20;;;;;;;87.70;39.60;;;;;;;6.73;100.00;102758.81;4919271;29;20428;-68
2021/11/16 06:14:05;;;;;;;90.70;37.97;;;;;;;7.18;100.00;102760.16;4919125;29;20043;-68
2021/11/16 06:16:52;;;;;;;91.40;38.78;;;;;;;6.96;100.00;102759.50;4918884;29;20039;-68
2021/11/16 06:19:39;;;;;;;93.65;40.10;;;;;;;6.85;100.00;102760.88;4920271;29;20462;-69
2021/11/16 06:22:24;;;;;;;101.30;41.08;;;;;;;6.99;100.00;102764.81;4919155;29;20079;-68
2021/11/16 06:25:10;;;;;;;91.47;39.00;;;;;;;6.61;100.00;102758.44;4919330;29;20038;-68
2021/11/16 06:27:56;;;;;;;84.47;38.28;;;;;;;6.81;100.00;102761.63;4919911;29;20036;-68
2021/11/16 06:30:42;;;;;;;76.38;36.95;;;;;;;6.55;100.00;102766.03;4918554;29;20028;-68
2021/11/16 06:33:28;;;;;;;78.57;36.35;;;;;;;6.73;100.00;102766.63;4919483;29;20172;-68
2021/11/16 06:36:14;;;;;;;68.40;36.42;;;;;;;6.60;100.00;102767.09;4919323;29;20036;-68
2021/11/16 06:39:03;;;;;;;72.93;35.70;;;;;;;6.65;100.00;102756.78;4920150;29;20036;-68
2021/11/16 06:41:51;;;;;;;70.25;36.22;;;;;;;6.49;100.00;102758.06;4919247;29;20060;-67
2021/11/16 06:44:36;;;;;;;67.45;36.15;;;;;;;6.90;100.00;102761.91;4906108;29;20066;-69
2021/11/16 06:47:22;;;;;;;67.40;36.22;;;;;;;7.07;100.00;102758.09;4917164;29;20183;-68
2021/11/16 06:50:08;;;;;;;69.28;37.15;;;;;;;7.14;100.00;102752.19;4918144;29;20036;-69
2021/11/16 06:52:54;;;;;;;69.00;35.13;;;;;;;6.65;100.00;102743.78;4919027;29;20032;-69
2021/11/16 06:55:40;;;;;;;67.03;36.70;;;;;;;6.70;100.00;102757.81;4919323;29;20366;-68
2021/11/16 06:58:26;;;;;;;76.00;36.85;;;;;;;7.14;100.00;102753.09;4917994;29;20463;-68
2021/11/16 07:01:12;;;;;;;73.57;37.72;;;;;;;7.26;100.00;102770.78;4905210;29;20046;-68
2021/11/16 07:04:01;;;;;;;80.93;39.38;;;;;;;7.39;100.00;102768.59;4905610;29;20039;-68
2021/11/16 07:06:50;;;;;;;77.70;38.60;;;;;;;7.77;100.00;102756.59;4918916;29;20024;-68
2021/11/16 07:09:39;;;;;;;76.85;38.38;;;;;;;7.71;100.00;102757.31;4918587;29;20028;-68
2021/11/16 07:12:26;;;;;;;79.00;36.22;;;;;;;7.39;100.00;102762.50;4905385;29;20115;-68
2021/11/16 07:15:13;;;;;;;80.43;37.78;;;;;;;7.52;100.00;102756.78;4916644;29;20062;-68
2021/11/16 07:18:03;;;;;;;77.55;40.47;;;;;;;7.69;100.00;102759.00;4917034;29;20032;-68
2021/11/16 07:21:00;;;;;;;78.43;39.33;;;;;;;7.47;100.00;102748.81;4905760;29;20458;-69
2021/11/16 07:23:47;;;;;;;155.20;63.08;;;;;;;7.29;100.00;102750.03;4918638;29;20374;-68
2021/11/16 07:26:39;;;;;;;156.55;61.63;;;;;;;7.93;100.00;102763.97;4918204;29;20118;-68
2021/11/16 07:29:39;;;;;;;84.15;43.03;;;;;;;8.17;100.00;102746.31;4917184;29;20028;-69
2021/11/16 07:32:30;;;;;;;90.25;43.22;;;;;;;8.12;100.00;102745.31;4917443;29;20024;-68
2021/11/16 07:35:21;;;;;;;93.72;41.83;;;;;;;8.04;100.00;102746.88;4918471;29;20455;-68
2021/11/16 07:38:11;;;;;;;119.07;49.35;;;;;;;8.32;100.00;102747.59;4918620;29;20032;-68
2021/11/16 07:40:58;;;;;;;101.72;43.65;;;;;;;8.26;100.00;102746.56;4918537;29;20028;-70
2021/11/16 07:43:43;;;;;;;85.47;39.63;;;;;;;8.48;100.00;102741.03;4919200;29;20091;-68
2021/11/16 07:46:29;;;;;;;80.43;40.42;;;;;;;8.38;100.00;102739.03;4903023;29;20064;-70
2021/11/16 07:49:15;;;;;;;76.38;38.78;;;;;;;8.90;100.00;102742.84;4917287;29;20028;-68
2021/11/16 07:52:00;;;;;;;92.82;42.25;;;;;;;8.56;100.00;102723.78;4916862;29;20039;-70
2021/11/16 07:54:46;;;;;;;94.32;42.45;;;;;;;8.37;100.00;102734.66;4917961;29;20032;-69
2021/11/16 07:57:43;;;;;;;115.32;43.13;;;;;;;8.54;100.00;102738.53;4904385;29;20479;-69
2021/11/16 08:00:29;;;;;;;94.20;42.67;;;;;;;8.53;100.00;102735.03;4918184;29;20476;-69
2021/11/16 08:03:22;;;;;;;93.75;40.90;;;;;;;8.28;100.00;102729.22;4905454;29;20035;-69
2021/11/16 08:09:05;;;;;;;80.30;41.88;;;;;;;8.64;100.00;102745.75;4918316;29;20032;-69
2021/11/16 08:12:04;;;;;;;81.55;42.75;;;;;;;8.36;100.00;102751.19;4917544;29;20035;-70
2021/11/16 08:15:11;;;;;;;63.20;37.75;;;;;;;8.45;100.00;102739.19;4918696;29;20037;-70
2021/11/16 08:18:01;;;;;;;73.10;40.40;;;;;;;8.39;100.00;102746.00;4908075;29;20038;-69
2021/11/16 08:20:58;;;;;;;73.10;39.45;;;;;;;8.76;100.00;102744.28;4907661;29;20028;-68
2021/11/16 08:23:59;;;;;;;68.13;38.38;;;;;;;8.48;100.00;102749.72;4907985;29;20031;-69
2021/11/16 08:26:48;;;;;;;65.53;38.05;;;;;;;8.70;100.00;102748.47;4920886;29;20028;-70
2021/11/16 08:29:37;;;;;;;66.60;38.90;;;;;;;9.00;100.00;102747.41;4921070;29;20039;-70
2021/11/16 08:32:33;;;;;;;68.10;38.88;;;;;;;9.26;100.00;102737.50;4907522;29;20362;-70
2021/11/16 08:35:24;;;;;;;63.03;39.38;;;;;;;9.42;100.00;102732.59;4920884;29;20061;-70
2021/11/16 08:38:13;;;;;;;74.60;38.88;;;;;;;9.45;100.00;102731.78;4922050;29;20419;-69
2021/11/16 08:40:59;;;;;;;71.93;39.13;;;;;;;9.13;100.00;102727.66;4907235;29;20033;-70
2021/11/16 08:43:44;;;;;;;58.75;36.20;;;;;;;8.98;100.00;102729.94;4919830;29;20051;-70
2021/11/16 08:46:32;;;;;;;63.72;37.20;;;;;;;9.25;100.00;102733.13;4906146;29;20217;-69
2021/11/16 08:49:27;;;;;;;70.78;36.97;;;;;;;8.83;100.00;102727.88;4920266;29;20075;-69
2021/11/16 08:52:16;;;;;;;68.32;37.05;;;;;;;9.27;100.00;102734.03;4920839;29;20032;-69
2021/11/16 08:55:09;;;;;;;62.90;36.00;;;;;;;9.68;100.00;102727.81;4922914;29;20110;-70
2021/11/16 08:57:58;;;;;;;63.45;35.28;;;;;;;9.42;100.00;102722.13;4920425;29;20383;-70
2021/11/16 09:01:02;;;;;;;57.13;34.58;;;;;;;9.75;100.00;102728.00;4920945;29;20509;-69
2021/11/16 09:03:48;;;;;;;77.68;38.42;;;;;;;10.09;100.00;102714.63;4921382;29;20115;-71
2021/11/16 09:06:37;;;;;;;80.88;41.42;;;;;;;9.90;100.00;102704.66;4920260;29;20113;-70
2021/11/16 09:09:23;;;;;;;74.15;36.55;;;;;;;10.57;100.00;102708.38;4920778;29;20031;-71
2021/11/16 09:12:13;;;;;;;81.30;38.25;;;;;;;10.44;100.00;102709.94;4920623;29;20028;-70
2021/11/16 09:15:02;;;;;;;92.95;37.47;;;;;;;10.57;100.00;102704.00;4907933;29;20044;-70
2021/11/16 09:17:49;;;;;;;68.20;35.53;;;;;;;10.86;100.00;102697.44;4921649;29;20356;-70
2021/11/16 09:20:35;;;;;;;55.97;32.38;;;;;;;10.80;100.00;102699.97;4920575;29;20320;-69
2021/11/16 09:23:25;;;;;;;58.03;32.13;;;;;;;11.19;100.00;102702.19;4920275;29;20367;-70
2021/11/16 09:29:28;;;;;;;55.60;30.10;;;;;;;11.05;100.00;102683.66;4893430;29;20047;-70
2021/11/16 09:32:15;;;;;;;66.25;30.67;;;;;;;11.23;100.00;102675.13;4920655;29;20517;-70
2021/11/16 09:35:02;;;;;;;50.03;29.52;;;;;;;11.14;100.00;102672.41;4919850;29;20519;-71
2021/11/16 09:37:48;;;;;;;75.05;31.35;;;;;;;10.81;100.00;102661.53;4920319;29;20462;-70
2021/11/16 09:40:34;;;;;;;59.75;30.48;;;;;;;11.18;100.00;102654.09;4920243;29;20043;-69
2021/11/16 09:43:24;;;;;;;54.28;28.70;;;;;;;10.87;100.00;102648.47;4920110;29;20032;-69
2021/11/16 09:46:13;;;;;;;64.18;29.55;;;;;;;11.10;100.00;102650.50;4919928;29;20024;-69
2021/11/16 09:49:01;;;;;;;50.83;27.98;;;;;;;11.09;100.00;102648.72;4906441;29;20024;-70
2021/11/16 09:52:04;;;;;;;50.50;27.50;;;;;;;11.16;100.00;102637.44;4919838;29;20458;-70
2021/11/16 09:54:57;;;;;;;58.55;29.00;;;;;;;11.18;100.00;102634.84;4906800;29;20340;-70
2021/11/16 09:57:51;;;;;;;58.55;26.13;;;;;;;11.50;100.00;102639.56;4919709;29;20063;-70
2021/11/16 10:00:42;;;;;;;45.63;25.73;;;;;;;12.19;100.00;102628.75;4905730;29;20055;-71
2021/11/16 10:03:28;;;;;;;40.80;24.25;;;;;;;11.65;100.00;102618.69;4920607;29;20058;-70
2021/11/16 10:06:15;;;;;;;37.03;23.38;;;;;;;10.72;100.00;102620.31;4919763;29;20475;-70
2021/11/16 10:09:04;;;;;;;36.58;22.20;;;;;;;11.05;100.00;102611.97;4919965;29;20115;-69
2021/11/16 10:11:52;;;;;;;36.10;23.42;;;;;;;11.57;100.00;102609.84;4919942;29;20047;-71
2021/11/16 10:14:38;;;;;;;38.60;22.52;;;;;;;12.08;100.00;102606.75;4918351;29;20046;-70
2021/11/16 10:17:24;;;;;;;37.85;21.45;;;;;;;12.23;100.00;102601.59;4919779;29;20099;-69
2021/11/16 10:20:11;;;;;;;32.88;20.65;;;;;;;12.56;100.00;102602.66;4906262;29;20214;-70
2021/11/16 10:23:00;;;;;;;32.83;20.52;;;;;;;13.09;100.00;102601.13;4919765;29;20044;-71
2021/11/16 10:25:52;;;;;;;30.98;20.15;;;;;;;12.37;100.00;102599.91;4919645;29;20059;-69
2021/11/16 10:28:42;;;;;;;33.10;19.17;;;;;;;12.27;100.00;102593.75;4918471;29;20039;-69
2021/11/16 10:31:32;;;;;;;31.90;18.50;;;;;;;12.08;100.00;102601.50;4920035;29;20495;-70
2021/11/16 10:34:18;;;;;;;38.53;19.17;;;;;;;12.00;100.00;102593.59;4917847;29;20040;-70
2021/11/16 10:37:05;;;;;;;38.42;19.23;;;;;;;12.47;100.00;102600.00;4917780;29;20032;-70
2021/11/16 10:40:07;;;;;;;36.03;19.17;;;;;;;12.28;100.00;102608.66;4917735;29;20032;-69
2021/11/16 10:42:59;;;;;;;43.85;21.73;;;;;;;11.72;100.00;102593.38;4918834;29;20125;-69
2021/11/16 10:45:48;;;;;;;48.97;21.60;;;;;;;11.21;100.00;102595.53;4919452;29;20443;-69
2021/11/16 10:48:35;;;;;;;57.30;23.27;;;;;;;10.99;100.00;102599.66;4920105;29;20039;-70
2021/11/16 10:51:21;;;;;;;55.97;23.02;;;;;;;11.65;100.00;102596.84;4917826;29;20083;-70
2021/11/16 10:54:09;;;;;;;49.83;21.75;;;;;;;11.56;100.00;102597.59;4917286;29;20036;-70
2021/11/16 10:57:01;;;;;;;40.78;19.05;;;;;;;10.86;100.00;102594.25;4919335;29;20039;-69
2021/11/16 10:59:59;;;;;;;41.10;20.25;;;;;;;10.88;100.00;102603.03;4918475;29;20352;-70
2021/11/16 11:03:05;;;;;;;37.28;20.10;;;;;;;11.26;100.00;102599.97;4918744;29;20028;-69
2021/11/16 11:05:56;;;;;;;41.35;20.45;;;;;;;11.30;100.00;102592.97;4917282;29;20027;-69
2021/11/16 11:08:52;;;;;;;36.72;20.15;;;;;;;11.72;100.00;102596.00;4918282;29;20455;-70
2021/11/16 11:11:41;;;;;;;31.40;19.27;;;;;;;11.49;100.00;102590.53;4917152;29;20047;-69
2021/11/16 11:14:36;;;;;;;34.38;19.77;;;;;;;11.56;100.00;102588.81;4905724;29;20028;-70
2021/11/16 11:17:35;;;;;;;36.42;19.92;;;;;;;11.47;100.00;102586.13;4903698;29;20032;-70
2021/11/16 11:20:21;;;;;;;38.67;23.17;;;;;;;11.20;100.00;102578.00;4918701;29;20362;-71
2021/11/16 11:23:52;;;;;;;37.45;19.23;;;;;;;11.12;100.00;102585.81;4918060;29;20023;-69
2021/11/16 11:29:44;;;;;;;40.55;20.85;;;;;;;10.88;100.00;102575.06;4918028;29;20060;-69
2021/11/16 11:32:42;;;;;;;38.22;20.35;;;;;;;10.61;100.00;102579.13;4918468;29;20064;-69
2021/11/16 11:35:28;;;;;;;42.78;22.52;;;;;;;10.30;100.00;102584.81;4917256;29;20371;-70
2021/11/16 11:38:14;;;;;;;46.22;22.48;;;;;;;10.44;100.00;102578.03;4918356;29;20158;-70
2021/11/16 11:41:00;;;;;;;34.55;22.20;;;;;;;9.99;100.00;102576.53;4918029;29;20028;-70
2021/11/16 11:44:15;;;;;;;41.88;21.45;;;;;;;10.44;100.00;102575.44;4918914;29;20111;-69
2021/11/16 11:47:00;;;;;;;38.20;22.55;;;;;;;10.04;100.00;102568.72;4917946;29;20451;-70
2021/11/16 11:49:46;;;;;;;58.80;25.73;;;;;;;10.43;100.00;102581.50;4917609;29;20043;-70
2021/11/16 11:52:32;;;;;;;55.25;26.63;;;;;;;10.18;100.00;102574.19;4918062;29;20024;-70
2021/11/16 11:55:19;;;;;;;49.65;25.33;;;;;;;9.90;100.00;102567.66;4917129;29;20024;-70
2021/11/16 11:58:06;;;;;;;52.45;26.23;;;;;;;9.85;100.00;102570.19;4917789;29;20048;-69
2021/11/16 12:00:58;;;;;;;39.40;24.75;;;;;;;10.05;100.00;102571.41;4917958;29;20058;-70
2021/11/16 12:03:47;;;;;;;58.55;27.95;;;;;;;10.03;100.00;102567.84;4918602;29;20035;-69
2021/11/16 12:06:33;;;;;;;59.58;29.35;;;;;;;9.85;100.00;102566.72;4917204;29;20036;-69
2021/11/16 12:09:21;;;;;;;70.50;30.83;;;;;;;9.61;100.00;102555.88;4904831;29;20482;-70
2021/11/16 12:12:07;;;;;;;56.35;29.55;;;;;;;9.54;100.00;102556.63;4918063;29;20052;-69
2021/11/16 12:15:02;;;;;;;59.05;30.13;;;;;;;9.46;100.00;102547.75;4916281;29;20056;-70
2021/11/16 12:17:53;;;;;;;55.90;31.15;;;;;;;9.73;100.00;102546.44;4917564;29;20075;-70
2021/11/16 12:20:42;;;;;;;55.80;29.75;;;;;;;9.63;100.00;102552.41;4904673;29;20036;-69
2021/11/16 12:23:47;;;;;;;51.85;28.73;;;;;;;9.59;100.00;102540.13;4903092;29;20127;-70
2021/11/16 12:26:54;;;;;;;53.28;28.95;;;;;;;9.88;100.00;102543.16;4916401;29;20132;-70
2021/11/16 12:29:41;;;;;;;46.03;28.08;;;;;;;9.49;100.00;102551.31;4917483;29;20036;-70
2021/11/16 12:32:30;;;;;;;47.67;28.10;;;;;;;9.91;100.00;102546.72;4917038;29;20095;-70
2021/11/16 12:35:19;;;;;;;66.03;31.90;;;;;;;9.91;100.00;102541.50;4917904;29;20056;-71
2021/11/16 12:38:14;;;;;;;60.33;32.38;;;;;;;9.83;100.00;102540.50;4918387;29;20040;-70
2021/11/16 12:41:33;;;;;;;47.58;28.67;;;;;;;9.73;100.00;102545.59;4903659;29;20499;-70
2021/11/16 12:44:44;;;;;;;50.88;29.30;;;;;;;9.70;100.00;102540.31;4902698;29;20444;-71
2021/11/16 12:47:32;;;;;;;51.38;31.08;;;;;;;9.72;100.00;102543.81;4917544;29;20032;-70
2021/11/16 12:50:19;;;;;;;43.30;27.55;;;;;;;9.39;100.00;102545.91;4917748;29;20043;-70
2021/11/16 12:53:05;;;;;;;48.97;29.45;;;;;;;9.29;100.00;102536.16;4917130;29;20032;-69
2021/11/16 12:55:52;;;;;;;45.60;29.95;;;;;;;9.43;100.00;102527.66;4917484;29;20047;-70
2021/11/16 12:58:49;;;;;;;56.80;32.13;;;;;;;9.29;100.00;102539.63;4917005;29;20053;-69
2021/11/16 13:01:42;;;;;;;51.75;30.88;;;;;;;9.47;100.00;102533.81;4918430;29;20032;-70
2021/11/16 13:04:44;;;;;;;53.22;32.35;;;;;;;9.42;100.00;102539.00;4907373;29;20032;-72
2021/11/16 13:07:36;;;;;;;65.15;33.72;;;;;;;9.62;100.00;102534.94;4920635;29;20036;-71
2021/11/16 13:10:25;;;;;;;56.17;31.50;;;;;;;9.57;100.00;102530.50;4919413;29;20046;-69
2021/11/16 13:13:15;;;;;;;54.17;30.98;;;;;;;9.58;100.00;102529.66;4920593;29;20032;-71
2021/11/16 13:16:04;;;;;;;46.15;29.98;;;;;;;9.28;100.00;102527.41;4919244;29;20162;-69
2021/11/16 13:18:56;;;;;;;50.20;30.63;;;;;;;9.34;100.00;102535.38;4921098;29;20032;-69
2021/11/16 13:21:42;;;;;;;48.30;31.77;;;;;;;9.14;100.00;102531.56;4920603;29;20092;-70
2021/11/16 13:24:39;;;;;;;57.13;33.30;;;;;;;9.23;100.00;102533.41;4920285;29;20463;-68
2021/11/16 13:27:50;;;;;;;66.93;40.05;;;;;;;9.55;100.00;102524.34;4920416;29;20036;-70
2021/11/16 13:30:36;;;;;;;75.72;43.85;;;;;;;9.41;100.00;102518.03;4920678;29;20117;-70
2021/11/16 13:33:54;;;;;;;57.78;34.33;;;;;;;9.42;100.00;102519.78;4918591;29;20542;-70
2021/11/16 13:36:48;;;;;;;54.97;33.97;;;;;;;9.27;100.00;102520.44;4920112;29;20422;-70
2021/11/16 13:39:36;;;;;;;53.72;32.67;;;;;;;9.08;100.00;102520.06;4921151;29;20447;-70
2021/11/16 13:42:25;;;;;;;59.63;37.55;;;;;;;8.79;100.00;102516.97;4920463;29;20040;-70
2021/11/16 13:45:11;;;;;;;69.18;38.13;;;;;;;9.14;100.00;102525.44;4920229;29;20367;-69
2021/11/16 13:47:57;;;;;;;62.42;38.28;;;;;;;9.17;100.00;102534.19;4919784;29;20067;-70
2021/11/16 13:50:43;;;;;;;81.65;41.92;;;;;;;8.93;100.00;102517.22;4919302;29;20028;-69
2021/11/16 13:53:29;;;;;;;89.03;43.90;;;;;;;8.70;100.00;102536.81;4919701;29;20091;-70
2021/11/16 13:56:15;;;;;;;100.00;46.53;;;;;;;8.46;100.00;102529.38;4919522;29;20087;-69
2021/11/16 13:59:13;;;;;;;89.65;45.42;;;;;;;8.80;100.00;102534.41;4919398;29;20052;-69
2021/11/16 14:02:05;;;;;;;78.35;43.60;;;;;;;9.03;100.00;102532.19;4919921;29;20071;-70
2021/11/16 14:04:56;;;;;;;75.47;42.45;;;;;;;9.23;100.00;102530.81;4920392;29;20028;-71
2021/11/16 14:07:56;;;;;;;73.63;41.45;;;;;;;9.12;100.00;102530.63;4919456;29;20048;-70
2021/11/16 14:10:51;;;;;;;68.40;40.25;;;;;;;9.02;100.00;102538.28;4918326;29;20032;-71
2021/11/16 14:13:44;;;;;;;68.25;40.90;;;;;;;9.03;100.00;102532.19;4920074;29;20086;-70
2021/11/16 14:16:30;;;;;;;72.50;41.75;;;;;;;8.90;100.00;102536.34;4919269;29;20028;-70
2021/11/16 14:19:16;;;;;;;80.45;41.38;;;;;;;8.90;100.00;102532.84;4919708;29;20058;-69
2021/11/16 14:22:02;;;;;;;75.25;41.20;;;;;;;8.47;100.00;102532.88;4919028;29;20032;-69
2021/11/16 14:24:52;;;;;;;68.55;39.97;;;;;;;8.60;100.00;102540.13;4918707;29;20024;-68
2021/11/16 14:27:39;;;;;;;71.10;41.33;;;;;;;8.33;100.00;102544.78;4920559;29;20095;-69
2021/11/16 14:30:29;;;;;;;72.25;43.28;;;;;;;8.50;100.00;102541.66;4918147;29;20024;-69
2021/11/16 14:33:16;;;;;;;83.60;42.80;;;;;;;8.11;100.00;102545.13;4919487;29;20042;-70
2021/11/16 14:36:03;;;;;;;73.57;42.22;;;;;;;8.10;100.00;102546.88;4918859;29;20032;-69
2021/11/16 14:38:49;;;;;;;75.20;43.05;;;;;;;8.23;100.00;102537.59;4919735;29;20032;-69
2021/11/16 14:41:41;;;;;;;81.03;43.05;;;;;;;8.54;100.00;102529.53;4918974;29;20051;-69
2021/11/16 14:44:37;;;;;;;72.75;42.83;;;;;;;8.27;100.00;102528.97;4919557;29;20039;-69
2021/11/16 14:47:29;;;;;;;78.25;44.60;;;;;;;8.24;100.00;102523.72;4918848;29;20028;-68
2021/11/16 14:50:20;;;;;;;83.53;44.53;;;;;;;8.07;100.00;102531.13;4904941;29;20036;-69
2021/11/16 14:53:13;;;;;;;88.25;49.35;;;;;;;8.54;100.00;102516.47;4919266;29;20028;-70
2021/11/16 14:55:59;;;;;;;88.88;46.85;;;;;;;8.70;100.00;102518.53;4917535;29;20039;-69
2021/11/16 14:59:11;;;;;;;78.00;45.30;;;;;;;8.45;100.00;102516.28;4905248;29;20048;-69
2021/11/16 15:02:00;;;;;;;77.45;46.13;;;;;;;8.41;100.00;102515.34;4907208;29;20032;-68
2021/11/16 15:04:46;;;;;;;78.50;46.55;;;;;;;9.08;100.00;102510.50;4910355;29;20035;-68
2021/11/16 15:07:31;;;;;;;79.47;47.05;;;;;;;8.79;100.00;102503.91;4924136;29;20119;-68
2021/11/16 15:10:24;;;;;;;77.07;43.67;;;;;;;8.19;100.00;102500.06;4923426;29;20042;-68
2021/11/16 15:13:10;;;;;;;95.70;52.13;;;;;;;8.70;100.00;102500.22;4922483;29;20032;-70
2021/11/16 15:15:57;;;;;;;82.93;48.08;;;;;;;8.12;100.00;102500.78;4906141;29;20042;-71
2021/11/16 15:19:04;;;;;;;72.30;44.95;;;;;;;8.07;100.00;102505.03;4919902;29;20024;-69
2021/11/16 15:22:03;;;;;;;89.28;51.80;;;;;;;8.31;100.00;102500.34;4904409;29;20036;-70
2021/11/16 15:27:38;;;;;;;86.97;49.05;;;;;;;8.13;100.00;102496.44;4918828;29;20480;-70
2021/11/16 15:30:49;;;;;;;82.88;50.22;;;;;;;8.41;100.00;102506.63;4918802;29;20028;-71
2021/11/16 15:33:38;;;;;;;83.55;50.72;;;;;;;8.15;100.00;102502.56;4918955;29;20111;-71
2021/11/16 15:36:27;;;;;;;80.13;48.05;;;;;;;8.46;100.00;102500.66;4918075;29;20035;-69
2021/11/16 15:39:17;;;;;;;80.53;48.00;;;;;;;8.49;100.00;102505.91;4918288;29;20024;-70
2021/11/16 15:42:05;;;;;;;88.78;51.78;;;;;;;8.51;100.00;102499.00;4916320;29;20443;-69
2021/11/16 15:45:03;;;;;;;90.15;53.28;;;;;;;8.66;100.00;102501.03;4918651;29;20032;-70
2021/11/16 15:48:23;;;;;;;77.65;47.70;;;;;;;8.56;100.00;102501.72;4919293;29;20467;-69
2021/11/16 15:51:59;;;;;;;89.55;49.22;;;;;;;8.47;100.00;102488.47;4918116;29;20032;-70
2021/11/16 15:57:38;;;;;;;141.43;70.68;;;;;;;8.45;100.00;102492.78;4916750;29;20395;-70
2021/11/16 16:00:26;;;;;;;96.82;50.95;;;;;;;8.24;100.00;102497.59;4917894;29;20028;-71